sensor_id;sensor_type;location;lat;lon;timestamp;pressure;altitude;pressure_sealevel;temperature;humidity
57801;BME280;43627;42.728;23.256;2022-08-14T00:01:56;94480.31;;;17.18;100.00
57801;BME280;43627;42.728;23.256;2022-08-14T00:04:23;94482.53;;;17.19;100.00
57801;BME280;43627;42.728;23.256;2022-08-14T00:07:09;94472.31;;;17.14;100.00
57801;BME280;43627;42.728;23.256;2022-08-14T00:09:37;94467.63;;;17.09;100.00
57801;BME280;43627;42.728;23.256;2022-08-14T00:12:24;94462.03;;;17.14;100.00
57801;BME280;43627;42.728;23.256;2022-08-14T00:15:12;94461.19;;;17.01;100.00
57801;BME280;43627;42.728;23.256;2022-08-14T00:17:41;94460.22;;;16.98;100.00
57801;BME280;43627;42.728;23.256;2022-08-14T00:20:15;94467.47;;;16.96;100.00
57801;BME280;43627;42.728;23.256;2022-08-14T00:22:55;94454.13;;;16.81;100.00
57801;BME280;43627;42.728;23.256;2022-08-14T00:25:24;94457.41;;;16.79;100.00
57801;BME280;43627;42.728;23.256;2022-08-14T00:28:10;94459.00;;;16.64;100.00
57801;BME280;43627;42.728;23.256;2022-08-14T00:30:41;94467.78;;;16.62;100.00
57801;BME280;43627;42.728;23.256;2022-08-14T00:33:08;94476.25;;;16.70;100.00
57801;BME280;43627;42.728;23.256;2022-08-14T00:35:43;94473.31;;;16.56;100.00
57801;BME280;43627;42.728;23.256;2022-08-14T00:38:30;94477.56;;;16.57;100.00
57801;BME280;43627;42.728;23.256;2022-08-14T00:41:00;94464.50;;;16.64;100.00
57801;BME280;43627;42.728;23.256;2022-08-14T00:43:27;94476.25;;;16.70;100.00
57801;BME280;43627;42.728;23.256;2022-08-14T00:46:01;94464.78;;;16.60;100.00
57801;BME280;43627;42.728;23.256;2022-08-14T00:48:31;94476.47;;;16.72;100.00
57801;BME280;43627;42.728;23.256;2022-08-14T00:51:07;94468.75;;;16.70;100.00
57801;BME280;43627;42.728;23.256;2022-08-14T00:53:37;94464.53;;;16.58;100.00
57801;BME280;43627;42.728;23.256;2022-08-14T00:56:09;94460.50;;;16.65;100.00
57801;BME280;43627;42.728;23.256;2022-08-14T00:58:40;94459.22;;;16.66;100.00
57801;BME280;43627;42.728;23.256;2022-08-14T01:01:13;94457.97;;;16.67;100.00
57801;BME280;43627;42.728;23.256;2022-08-14T01:03:43;94436.44;;;16.71;100.00
57801;BME280;43627;42.728;23.256;2022-08-14T01:06:13;94426.78;;;16.59;100.00
57801;BME280;43627;42.728;23.256;2022-08-14T01:08:44;94438.69;;;16.67;100.00
57801;BME280;43627;42.728;23.256;2022-08-14T01:11:25;94441.94;;;16.71;100.00
57801;BME280;43627;42.728;23.256;2022-08-14T01:14:02;94434.97;;;16.70;100.00
57801;BME280;43627;42.728;23.256;2022-08-14T01:16:49;94428.00;;;16.57;100.00
57801;BME280;43627;42.728;23.256;2022-08-14T01:19:21;94433.78;;;16.60;100.00
57801;BME280;43627;42.728;23.256;2022-08-14T01:22:08;94430.94;;;16.41;100.00
57801;BME280;43627;42.728;23.256;2022-08-14T01:24:39;94421.69;;;16.38;100.00
57801;BME280;43627;42.728;23.256;2022-08-14T01:27:16;94430.13;;;16.46;100.00
57801;BME280;43627;42.728;23.256;2022-08-14T01:29:49;94431.63;;;16.47;100.00
57801;BME280;43627;42.728;23.256;2022-08-14T01:32:30;94428.88;;;16.47;100.00
57801;BME280;43627;42.728;23.256;2022-08-14T01:35:10;94429.91;;;16.44;100.00
57801;BME280;43627;42.728;23.256;2022-08-14T01:37:57;94427.66;;;16.42;100.00
57801;BME280;43627;42.728;23.256;2022-08-14T01:40:25;94430.66;;;16.44;100.00
57801;BME280;43627;42.728;23.256;2022-08-14T01:43:13;94431.59;;;16.52;100.00
57801;BME280;43627;42.728;23.256;2022-08-14T01:45:47;94423.09;;;16.50;100.00
57801;BME280;43627;42.728;23.256;2022-08-14T01:48:32;94422.25;;;16.61;100.00
57801;BME280;43627;42.728;23.256;2022-08-14T01:51:04;94411.97;;;16.62;100.00
57801;BME280;43627;42.728;23.256;2022-08-14T01:53:46;94424.94;;;16.67;100.00
57801;BME280;43627;42.728;23.256;2022-08-14T01:56:33;94420.34;;;16.50;100.00
57801;BME280;43627;42.728;23.256;2022-08-14T01:59:07;94418.66;;;16.42;100.00
57801;BME280;43627;42.728;23.256;2022-08-14T02:01:35;94418.69;;;16.36;100.00
57801;BME280;43627;42.728;23.256;2022-08-14T02:04:08;94421.44;;;16.36;100.00
57801;BME280;43627;42.728;23.256;2022-08-14T02:06:55;94423.66;;;16.43;100.00
57801;BME280;43627;42.728;23.256;2022-08-14T02:09:22;94422.38;;;16.44;100.00
57801;BME280;43627;42.728;23.256;2022-08-14T02:11:50;94418.47;;;16.34;100.00
57801;BME280;43627;42.728;23.256;2022-08-14T02:14:20;94426.53;;;16.26;100.00
57801;BME280;43627;42.728;23.256;2022-08-14T02:16:58;94423.03;;;16.26;100.00
57801;BME280;43627;42.728;23.256;2022-08-14T02:19:27;94424.31;;;16.19;100.00
57801;BME280;43627;42.728;23.256;2022-08-14T02:21:58;94418.28;;;16.26;100.00
57801;BME280;43627;42.728;23.256;2022-08-14T02:24:29;94422.00;;;16.29;100.00
57801;BME280;43627;42.728;23.256;2022-08-14T02:27:07;94413.75;;;16.29;100.00
57801;BME280;43627;42.728;23.256;2022-08-14T02:29:55;94412.88;;;16.45;100.00
57801;BME280;43627;42.728;23.256;2022-08-14T02:32:29;94405.59;;;16.48;100.00
57801;BME280;43627;42.728;23.256;2022-08-14T02:35:05;94412.50;;;16.60;100.00
57801;BME280;43627;42.728;23.256;2022-08-14T02:37:44;94411.16;;;16.67;100.00
57801;BME280;43627;42.728;23.256;2022-08-14T02:40:18;94398.66;;;16.71;100.00
57801;BME280;43627;42.728;23.256;2022-08-14T02:42:46;94407.09;;;16.79;100.00
57801;BME280;43627;42.728;23.256;2022-08-14T02:45:20;94403.06;;;16.80;100.00
57801;BME280;43627;42.728;23.256;2022-08-14T02:47:48;94382.88;;;16.72;100.00
57801;BME280;43627;42.728;23.256;2022-08-14T02:50:22;94398.44;;;16.64;100.00
57801;BME280;43627;42.728;23.256;2022-08-14T02:52:52;94400.28;;;16.55;100.00
57801;BME280;43627;42.728;23.256;2022-08-14T02:55:34;94422.50;;;16.57;100.00
57801;BME280;43627;42.728;23.256;2022-08-14T02:58:01;94412.78;;;16.56;100.00
57801;BME280;43627;42.728;23.256;2022-08-14T03:00:33;94405.09;;;16.49;100.00
57801;BME280;43627;42.728;23.256;2022-08-14T03:03:05;94413.84;;;16.48;100.00
57801;BME280;43627;42.728;23.256;2022-08-14T03:05:33;94405.88;;;16.44;100.00
57801;BME280;43627;42.728;23.256;2022-08-14T03:08:07;94407.66;;;16.42;100.00
57801;BME280;43627;42.728;23.256;2022-08-14T03:10:36;94416.75;;;16.31;100.00
57801;BME280;43627;42.728;23.256;2022-08-14T03:13:14;94418.50;;;16.28;100.00
57801;BME280;43627;42.728;23.256;2022-08-14T03:15:48;94421.25;;;16.28;100.00
57801;BME280;43627;42.728;23.256;2022-08-14T03:18:22;94405.75;;;16.31;100.00
57801;BME280;43627;42.728;23.256;2022-08-14T03:21:03;94406.22;;;16.35;100.00
57801;BME280;43627;42.728;23.256;2022-08-14T03:23:31;94411.16;;;16.42;100.00
57801;BME280;43627;42.728;23.256;2022-08-14T03:26:14;94420.91;;;16.43;100.00
57801;BME280;43627;42.728;23.256;2022-08-14T03:28:55;94407.38;;;16.45;100.00
57801;BME280;43627;42.728;23.256;2022-08-14T03:31:27;94431.09;;;16.48;100.00
57801;BME280;43627;42.728;23.256;2022-08-14T03:33:55;94430.00;;;16.33;100.00
57801;BME280;43627;42.728;23.256;2022-08-14T03:36:26;94432.03;;;16.26;100.00
57801;BME280;43627;42.728;23.256;2022-08-14T03:39:13;94433.28;;;16.25;100.00
57801;BME280;43627;42.728;23.256;2022-08-14T03:41:53;94438.81;;;16.20;100.00
57801;BME280;43627;42.728;23.256;2022-08-14T03:44:20;94429.13;;;16.13;100.00
57801;BME280;43627;42.728;23.256;2022-08-14T03:47:07;94415.63;;;16.15;100.00
57801;BME280;43627;42.728;23.256;2022-08-14T03:49:37;94425.34;;;16.22;100.00
57801;BME280;43627;42.728;23.256;2022-08-14T03:52:08;94429.34;;;16.21;100.00
57801;BME280;43627;42.728;23.256;2022-08-14T03:54:54;94425.50;;;16.29;100.00
57801;BME280;43627;42.728;23.256;2022-08-14T03:57:21;94421.03;;;16.26;100.00
57801;BME280;43627;42.728;23.256;2022-08-14T03:59:49;94421.00;;;16.32;100.00
57801;BME280;43627;42.728;23.256;2022-08-14T04:02:16;94418.16;;;16.43;100.00
57801;BME280;43627;42.728;23.256;2022-08-14T04:04:59;94426.59;;;16.51;100.00
57801;BME280;43627;42.728;23.256;2022-08-14T04:07:37;94415.44;;;16.68;100.00
57801;BME280;43627;42.728;23.256;2022-08-14T04:10:15;94427.34;;;16.81;100.00
57801;BME280;43627;42.728;23.256;2022-08-14T04:12:42;94425.84;;;16.80;100.00
57801;BME280;43627;42.728;23.256;2022-08-14T04:15:17;94427.63;;;16.78;100.00
57801;BME280;43627;42.728;23.256;2022-08-14T04:17:48;94436.34;;;16.82;100.00
57801;BME280;43627;42.728;23.256;2022-08-14T04:20:16;94434.16;;;16.75;100.00
57801;BME280;43627;42.728;23.256;2022-08-14T04:22:51;94430.50;;;16.91;100.00
57801;BME280;43627;42.728;23.256;2022-08-14T04:25:21;94429.41;;;17.00;100.00
57801;BME280;43627;42.728;23.256;2022-08-14T04:27:47;94431.81;;;17.09;100.00
57801;BME280;43627;42.728;23.256;2022-08-14T04:30:29;94431.97;;;17.17;100.00
57801;BME280;43627;42.728;23.256;2022-08-14T04:32:59;94425.66;;;17.22;100.00
57801;BME280;43627;42.728;23.256;2022-08-14T04:35:34;94419.56;;;17.29;100.00
57801;BME280;43627;42.728;23.256;2022-08-14T04:38:21;94427.31;;;17.30;100.00
57801;BME280;43627;42.728;23.256;2022-08-14T04:41:06;94418.94;;;17.17;100.00
57801;BME280;43627;42.728;23.256;2022-08-14T04:43:56;94428.72;;;17.18;100.00
57801;BME280;43627;42.728;23.256;2022-08-14T04:46:23;94424.88;;;17.02;100.00
57801;BME280;43627;42.728;23.256;2022-08-14T04:49:11;94428.44;;;16.97;100.00
57801;BME280;43627;42.728;23.256;2022-08-14T04:51:40;94430.31;;;16.83;100.00
57801;BME280;43627;42.728;23.256;2022-08-14T04:54:12;94427.09;;;16.79;100.00
57801;BME280;43627;42.728;23.256;2022-08-14T04:56:42;94421.53;;;16.85;100.00
57801;BME280;43627;42.728;23.256;2022-08-14T04:59:10;94420.03;;;16.84;100.00
57801;BME280;43627;42.728;23.256;2022-08-14T05:01:41;94412.25;;;16.88;100.00
57801;BME280;43627;42.728;23.256;2022-08-14T05:04:20;94428.94;;;16.96;100.00
57801;BME280;43627;42.728;23.256;2022-08-14T05:06:52;94422.84;;;17.03;100.00
57801;BME280;43627;42.728;23.256;2022-08-14T05:09:22;94420.06;;;17.08;100.00
57801;BME280;43627;42.728;23.256;2022-08-14T05:11:49;94426.41;;;17.22;100.00
57801;BME280;43627;42.728;23.256;2022-08-14T05:14:17;94419.63;;;17.42;100.00
57801;BME280;43627;42.728;23.256;2022-08-14T05:17:04;94427.78;;;17.34;100.00
57801;BME280;43627;42.728;23.256;2022-08-14T05:19:32;94419.88;;;17.25;100.00
57801;BME280;43627;42.728;23.256;2022-08-14T05:22:09;94425.88;;;17.24;100.00
57801;BME280;43627;42.728;23.256;2022-08-14T05:24:47;94419.13;;;17.25;100.00
57801;BME280;43627;42.728;23.256;2022-08-14T05:27:15;94419.97;;;17.14;100.00
57801;BME280;43627;42.728;23.256;2022-08-14T05:29:48;94420.84;;;17.28;100.00
57801;BME280;43627;42.728;23.256;2022-08-14T05:32:15;94427.69;;;17.40;100.00
57801;BME280;43627;42.728;23.256;2022-08-14T05:34:43;94427.69;;;17.40;100.00
57801;BME280;43627;42.728;23.256;2022-08-14T05:37:11;94416.25;;;17.55;100.00
57801;BME280;43627;42.728;23.256;2022-08-14T05:39:41;94424.81;;;17.70;100.00
57801;BME280;43627;42.728;23.256;2022-08-14T05:42:08;94414.84;;;17.86;100.00
57801;BME280;43627;42.728;23.256;2022-08-14T05:44:53;94417.66;;;17.80;100.00
57801;BME280;43627;42.728;23.256;2022-08-14T05:47:21;94415.00;;;17.75;100.00
57801;BME280;43627;42.728;23.256;2022-08-14T05:49:49;94422.16;;;17.83;100.00
57801;BME280;43627;42.728;23.256;2022-08-14T05:52:17;94420.44;;;17.80;100.00
57801;BME280;43627;42.728;23.256;2022-08-14T05:54:51;94414.69;;;17.78;100.00
57801;BME280;43627;42.728;23.256;2022-08-14T05:57:19;94426.59;;;17.67;100.00
57801;BME280;43627;42.728;23.256;2022-08-14T05:59:46;94421.50;;;17.53;100.00
57801;BME280;43627;42.728;23.256;2022-08-14T06:02:13;94421.75;;;17.55;100.00
57801;BME280;43627;42.728;23.256;2022-08-14T06:04:41;94413.94;;;17.59;100.00
57801;BME280;43627;42.728;23.256;2022-08-14T06:07:15;94407.75;;;17.72;100.00
57801;BME280;43627;42.728;23.256;2022-08-14T06:09:42;94425.56;;;17.70;100.00
57801;BME280;43627;42.728;23.256;2022-08-14T06:12:16;94413.28;;;17.72;100.00
57801;BME280;43627;42.728;23.256;2022-08-14T06:15:05;94431.59;;;17.88;100.00
57801;BME280;43627;42.728;23.256;2022-08-14T06:18:02;94438.84;;;17.91;100.00
57801;BME280;43627;42.728;23.256;2022-08-14T06:20:29;94430.59;;;17.72;100.00
57801;BME280;43627;42.728;23.256;2022-08-14T06:22:57;94440.03;;;17.77;100.00
57801;BME280;43627;42.728;23.256;2022-08-14T06:25:25;94443.75;;;17.79;100.00
57801;BME280;43627;42.728;23.256;2022-08-14T06:27:53;94445.50;;;17.82;100.00
57801;BME280;43627;42.728;23.256;2022-08-14T06:30:22;94445.63;;;17.71;100.00
57801;BME280;43627;42.728;23.256;2022-08-14T06:33:09;94445.56;;;17.77;100.00
57801;BME280;43627;42.728;23.256;2022-08-14T06:35:36;94448.31;;;17.77;100.00
57801;BME280;43627;42.728;23.256;2022-08-14T06:38:03;94445.25;;;17.80;100.00
57801;BME280;43627;42.728;23.256;2022-08-14T06:40:35;94439.81;;;17.75;100.00
57801;BME280;43627;42.728;23.256;2022-08-14T06:43:09;94445.78;;;17.79;100.00
57801;BME280;43627;42.728;23.256;2022-08-14T06:45:41;94430.13;;;17.87;100.00
57801;BME280;43627;42.728;23.256;2022-08-14T06:48:19;94444.59;;;17.93;100.00
57801;BME280;43627;42.728;23.256;2022-08-14T06:50:47;94432.81;;;17.92;100.00
57801;BME280;43627;42.728;23.256;2022-08-14T06:53:14;94436.16;;;18.04;100.00
57801;BME280;43627;42.728;23.256;2022-08-14T06:55:46;94440.25;;;17.97;100.00
57801;BME280;43627;42.728;23.256;2022-08-14T06:58:26;94458.59;;;17.95;100.00
57801;BME280;43627;42.728;23.256;2022-08-14T07:00:57;94454.19;;;17.86;100.00
57801;BME280;43627;42.728;23.256;2022-08-14T07:03:50;94432.94;;;17.81;100.00
57801;BME280;43627;42.728;23.256;2022-08-14T07:06:51;94436.59;;;17.89;100.00
57801;BME280;43627;42.728;23.256;2022-08-14T07:09:21;94449.38;;;17.92;100.00
57801;BME280;43627;42.728;23.256;2022-08-14T07:11:49;94446.06;;;17.94;100.00
57801;BME280;43627;42.728;23.256;2022-08-14T07:14:17;94446.81;;;17.94;100.00
57801;BME280;43627;42.728;23.256;2022-08-14T07:16:43;94446.59;;;17.92;100.00
57801;BME280;43627;42.728;23.256;2022-08-14T07:19:10;94445.97;;;17.99;100.00
57801;BME280;43627;42.728;23.256;2022-08-14T07:21:37;94453.81;;;17.95;100.00
57801;BME280;43627;42.728;23.256;2022-08-14T07:24:05;94449.44;;;17.87;100.00
57801;BME280;43627;42.728;23.256;2022-08-14T07:26:47;94450.00;;;17.80;100.00
57801;BME280;43627;42.728;23.256;2022-08-14T07:29:14;94449.50;;;17.81;100.00
57801;BME280;43627;42.728;23.256;2022-08-14T07:31:43;94453.25;;;17.84;100.00
57801;BME280;43627;42.728;23.256;2022-08-14T07:34:09;94449.72;;;17.83;100.00
57801;BME280;43627;42.728;23.256;2022-08-14T07:36:36;94446.72;;;18.00;100.00
57801;BME280;43627;42.728;23.256;2022-08-14T07:39:23;94446.22;;;18.02;100.00
57801;BME280;43627;42.728;23.256;2022-08-14T07:41:53;94453.75;;;18.01;100.00
57801;BME280;43627;42.728;23.256;2022-08-14T07:44:19;94455.78;;;18.01;100.00
57801;BME280;43627;42.728;23.256;2022-08-14T07:47:06;94446.34;;;18.09;100.00
57801;BME280;43627;42.728;23.256;2022-08-14T07:49:33;94459.09;;;18.31;100.00
57801;BME280;43627;42.728;23.256;2022-08-14T07:52:01;94446.41;;;18.54;100.00
57801;BME280;43627;42.728;23.256;2022-08-14T07:54:29;94452.78;;;18.81;100.00
57801;BME280;43627;42.728;23.256;2022-08-14T07:56:57;94456.72;;;18.99;100.00
57801;BME280;43627;42.728;23.256;2022-08-14T07:59:26;94456.22;;;19.40;100.00
57801;BME280;43627;42.728;23.256;2022-08-14T08:02:10;94443.69;;;19.66;100.00
57801;BME280;43627;42.728;23.256;2022-08-14T08:04:51;94459.94;;;19.43;100.00
57801;BME280;43627;42.728;23.256;2022-08-14T08:07:25;94455.97;;;19.52;100.00
57801;BME280;43627;42.728;23.256;2022-08-14T08:09:57;94458.34;;;19.34;100.00
57801;BME280;43627;42.728;23.256;2022-08-14T08:12:27;94467.50;;;19.16;100.00
57801;BME280;43627;42.728;23.256;2022-08-14T08:14:58;94453.00;;;19.23;100.00
57801;BME280;43627;42.728;23.256;2022-08-14T08:17:31;94464.50;;;19.27;100.00
57801;BME280;43627;42.728;23.256;2022-08-14T08:20:05;94448.16;;;19.16;100.00
57801;BME280;43627;42.728;23.256;2022-08-14T08:22:38;94453.69;;;19.43;100.00
57801;BME280;43627;42.728;23.256;2022-08-14T08:25:09;94435.38;;;19.39;100.00
57801;BME280;43627;42.728;23.256;2022-08-14T08:27:39;94445.38;;;19.56;100.00
57801;BME280;43627;42.728;23.256;2022-08-14T08:30:10;94458.53;;;19.76;100.00
57801;BME280;43627;42.728;23.256;2022-08-14T08:32:39;94439.94;;;19.77;100.00
57801;BME280;43627;42.728;23.256;2022-08-14T08:35:29;94446.03;;;19.35;100.00
57801;BME280;43627;42.728;23.256;2022-08-14T08:38:22;94452.72;;;19.27;100.00
57801;BME280;43627;42.728;23.256;2022-08-14T08:41:09;94440.91;;;19.13;100.00
57801;BME280;43627;42.728;23.256;2022-08-14T08:43:37;94446.03;;;19.35;100.00
57801;BME280;43627;42.728;23.256;2022-08-14T08:46:13;94439.31;;;19.31;100.00
57801;BME280;43627;42.728;23.256;2022-08-14T08:48:51;94444.94;;;19.52;100.00
57801;BME280;43627;42.728;23.256;2022-08-14T08:51:38;94456.00;;;19.38;100.00
57801;BME280;43627;42.728;23.256;2022-08-14T08:54:14;94439.88;;;19.56;100.00
57801;BME280;43627;42.728;23.256;2022-08-14T08:56:49;94449.16;;;19.79;100.00
57801;BME280;43627;42.728;23.256;2022-08-14T08:59:26;94443.44;;;19.77;100.00
57801;BME280;43627;42.728;23.256;2022-08-14T09:02:08;94430.66;;;19.87;100.00
57801;BME280;43627;42.728;23.256;2022-08-14T09:04:42;94440.84;;;20.26;100.00
57801;BME280;43627;42.728;23.256;2022-08-14T09:07:28;94424.09;;;20.32;100.00
57801;BME280;43627;42.728;23.256;2022-08-14T09:09:56;94430.63;;;20.56;100.00
57801;BME280;43627;42.728;23.256;2022-08-14T09:12:29;94432.22;;;20.93;99.84
57801;BME280;43627;42.728;23.256;2022-08-14T09:15:04;94422.72;;;21.37;96.55
57801;BME280;43627;42.728;23.256;2022-08-14T09:17:39;94418.50;;;21.88;96.37
57801;BME280;43627;42.728;23.256;2022-08-14T09:20:07;94424.41;;;21.77;83.65
57801;BME280;43627;42.728;23.256;2022-08-14T09:22:39;94426.25;;;21.38;89.02
57801;BME280;43627;42.728;23.256;2022-08-14T09:25:14;94419.09;;;21.22;89.34
57801;BME280;43627;42.728;23.256;2022-08-14T09:27:41;94402.63;;;21.16;93.26
57801;BME280;43627;42.728;23.256;2022-08-14T09:30:09;94417.84;;;21.51;87.18
57801;BME280;43627;42.728;23.256;2022-08-14T09:47:11;94433.81;;;22.17;79.21
57801;BME280;43627;42.728;23.256;2022-08-14T09:49:40;94431.03;;;22.10;81.13
57801;BME280;43627;42.728;23.256;2022-08-14T09:52:19;94432.19;;;21.86;83.37
57801;BME280;43627;42.728;23.256;2022-08-14T09:54:59;94425.88;;;22.29;75.89
57801;BME280;43627;42.728;23.256;2022-08-14T09:57:29;94425.75;;;22.65;74.15
57801;BME280;43627;42.728;23.256;2022-08-14T09:59:57;94426.47;;;22.81;75.17
57801;BME280;43627;42.728;23.256;2022-08-14T10:02:29;94422.41;;;23.20;74.07
57801;BME280;43627;42.728;23.256;2022-08-14T10:05:11;94413.28;;;23.35;69.79
57801;BME280;43627;42.728;23.256;2022-08-14T10:07:48;94424.25;;;22.79;71.03
57801;BME280;43627;42.728;23.256;2022-08-14T10:13:01;94415.44;;;22.07;75.14
57801;BME280;43627;42.728;23.256;2022-08-14T10:15:30;94418.69;;;22.64;67.66
57801;BME280;43627;42.728;23.256;2022-08-14T10:18:05;94423.53;;;22.71;67.30
57801;BME280;43627;42.728;23.256;2022-08-14T10:21:02;94428.72;;;22.75;69.91
57801;BME280;43627;42.728;23.256;2022-08-14T10:23:44;94415.53;;;22.83;71.78
57801;BME280;43627;42.728;23.256;2022-08-14T10:26:15;94422.44;;;23.13;69.67
57801;BME280;43627;42.728;23.256;2022-08-14T10:28:53;94414.25;;;23.22;65.43
57801;BME280;43627;42.728;23.256;2022-08-14T10:31:41;94415.44;;;23.67;67.34
57801;BME280;43627;42.728;23.256;2022-08-14T10:34:12;94401.66;;;23.14;63.15
57801;BME280;43627;42.728;23.256;2022-08-14T10:36:45;94408.34;;;22.88;64.99
57801;BME280;43627;42.728;23.256;2022-08-14T10:39:23;94403.16;;;22.92;65.55
57801;BME280;43627;42.728;23.256;2022-08-14T10:42:10;94397.53;;;23.30;65.42
57801;BME280;43627;42.728;23.256;2022-08-14T10:44:45;94389.41;;;23.24;63.91
57801;BME280;43627;42.728;23.256;2022-08-14T10:47:17;94386.38;;;23.60;63.81
57801;BME280;43627;42.728;23.256;2022-08-14T10:50:05;94383.41;;;23.99;61.41
57801;BME280;43627;42.728;23.256;2022-08-14T10:52:40;94383.72;;;24.68;59.48
57801;BME280;43627;42.728;23.256;2022-08-14T10:55:14;94358.72;;;25.02;55.50
57801;BME280;43627;42.728;23.256;2022-08-14T10:57:48;94362.09;;;24.51;55.69
57801;BME280;43627;42.728;23.256;2022-08-14T11:00:19;94371.81;;;23.22;61.29
57801;BME280;43627;42.728;23.256;2022-08-14T11:03:11;94361.53;;;23.40;62.00
57801;BME280;43627;42.728;23.256;2022-08-14T11:05:52;94330.34;;;22.70;64.91
57801;BME280;43627;42.728;23.256;2022-08-14T11:08:32;94354.22;;;23.04;61.62
57801;BME280;43627;42.728;23.256;2022-08-14T11:11:01;94354.81;;;22.87;61.54
57801;BME280;43627;42.728;23.256;2022-08-14T11:13:30;94350.28;;;23.22;62.38
57801;BME280;43627;42.728;23.256;2022-08-14T11:16:00;94337.63;;;23.36;64.28
57801;BME280;43627;42.728;23.256;2022-08-14T11:18:28;94331.63;;;23.48;60.13
57801;BME280;43627;42.728;23.256;2022-08-14T11:21:03;94332.50;;;23.73;60.05
57801;BME280;43627;42.728;23.256;2022-08-14T11:23:38;94330.03;;;24.42;55.40
57801;BME280;43627;42.728;23.256;2022-08-14T11:26:11;94322.16;;;24.91;54.42
57801;BME280;43627;42.728;23.256;2022-08-14T11:28:42;94330.91;;;24.70;55.03
57801;BME280;43627;42.728;23.256;2022-08-14T11:31:18;94329.03;;;24.72;57.70
57801;BME280;43627;42.728;23.256;2022-08-14T11:33:52;94325.03;;;25.00;54.84
57801;BME280;43627;42.728;23.256;2022-08-14T11:36:22;94320.38;;;24.86;52.81
57801;BME280;43627;42.728;23.256;2022-08-14T11:39:20;94322.81;;;24.39;53.79
57801;BME280;43627;42.728;23.256;2022-08-14T11:42:00;94325.91;;;24.68;53.54
57801;BME280;43627;42.728;23.256;2022-08-14T11:44:50;94335.69;;;25.02;52.95
57801;BME280;43627;42.728;23.256;2022-08-14T11:47:22;94332.88;;;25.37;51.03
57801;BME280;43627;42.728;23.256;2022-08-14T11:49:49;94332.28;;;25.73;52.27
57801;BME280;43627;42.728;23.256;2022-08-14T11:52:20;94325.44;;;25.83;51.43
57801;BME280;43627;42.728;23.256;2022-08-14T11:54:56;94324.41;;;25.61;52.70
57801;BME280;43627;42.728;23.256;2022-08-14T11:57:24;94331.88;;;26.03;51.18
57801;BME280;43627;42.728;23.256;2022-08-14T12:00:07;94328.41;;;25.68;50.91
57801;BME280;43627;42.728;23.256;2022-08-14T12:02:52;94324.41;;;24.92;51.73
57801;BME280;43627;42.728;23.256;2022-08-14T12:05:38;94330.03;;;24.42;55.00
57801;BME280;43627;42.728;23.256;2022-08-14T12:08:09;94321.53;;;24.08;55.07
57801;BME280;43627;42.728;23.256;2022-08-14T12:10:42;94315.41;;;24.09;55.31
57801;BME280;43627;42.728;23.256;2022-08-14T12:15:38;94323.00;;;24.09;53.34
57801;BME280;43627;42.728;23.256;2022-08-14T12:18:12;94326.97;;;23.98;54.71
57801;BME280;43627;42.728;23.256;2022-08-14T12:20:45;94329.28;;;23.84;55.74
57801;BME280;43627;42.728;23.256;2022-08-14T12:23:25;94324.13;;;24.38;55.53
57801;BME280;43627;42.728;23.256;2022-08-14T12:26:04;94321.47;;;24.15;55.08
57801;BME280;43627;42.728;23.256;2022-08-14T12:28:51;94319.69;;;24.35;54.00
57801;BME280;43627;42.728;23.256;2022-08-14T12:31:26;94316.72;;;24.33;55.54
57801;BME280;43627;42.728;23.256;2022-08-14T12:34:13;94313.25;;;24.50;53.95
57801;BME280;43627;42.728;23.256;2022-08-14T12:37:00;94311.06;;;24.66;54.03
57801;BME280;43627;42.728;23.256;2022-08-14T12:39:29;94300.25;;;24.70;53.34
57801;BME280;43627;42.728;23.256;2022-08-14T12:42:05;94303.72;;;24.78;51.70
57801;BME280;43627;42.728;23.256;2022-08-14T12:44:38;94301.50;;;24.76;52.57
57801;BME280;43627;42.728;23.256;2022-08-14T12:47:10;94306.97;;;24.67;53.38
57801;BME280;43627;42.728;23.256;2022-08-14T12:49:51;94299.66;;;24.29;55.30
57801;BME280;43627;42.728;23.256;2022-08-14T12:52:36;94298.75;;;24.27;56.55
57801;BME280;43627;42.728;23.256;2022-08-14T12:55:25;94300.84;;;24.43;56.73
57801;BME280;43627;42.728;23.256;2022-08-14T12:58:12;94298.00;;;24.26;57.22
57801;BME280;43627;42.728;23.256;2022-08-14T13:00:59;94290.94;;;24.00;59.81
57801;BME280;43627;42.728;23.256;2022-08-14T13:03:43;94304.59;;;23.88;63.56
57801;BME280;43627;42.728;23.256;2022-08-14T13:06:11;94284.88;;;23.54;66.22
57801;BME280;43627;42.728;23.256;2022-08-14T13:08:40;94284.88;;;23.14;66.49
57801;BME280;43627;42.728;23.256;2022-08-14T13:11:19;94291.16;;;23.22;67.18
57801;BME280;43627;42.728;23.256;2022-08-14T13:13:54;94281.41;;;23.38;66.14
57801;BME280;43627;42.728;23.256;2022-08-14T13:16:24;94280.72;;;23.30;69.43
57801;BME280;43627;42.728;23.256;2022-08-14T13:19:03;94277.91;;;23.37;69.33
57801;BME280;43627;42.728;23.256;2022-08-14T13:21:38;94268.19;;;23.54;68.39
57801;BME280;43627;42.728;23.256;2022-08-14T13:24:25;94270.25;;;23.46;68.09
57801;BME280;43627;42.728;23.256;2022-08-14T13:26:55;94268.53;;;23.58;68.43
57801;BME280;43627;42.728;23.256;2022-08-14T13:29:26;94278.69;;;23.71;68.03
57801;BME280;43627;42.728;23.256;2022-08-14T13:31:57;94269.66;;;23.87;68.36
57801;BME280;43627;42.728;23.256;2022-08-14T13:34:28;94271.41;;;23.75;67.26
57801;BME280;43627;42.728;23.256;2022-08-14T13:36:56;94267.06;;;23.89;66.87
57801;BME280;43627;42.728;23.256;2022-08-14T13:39:30;94266.22;;;24.04;65.42
57801;BME280;43627;42.728;23.256;2022-08-14T13:42:05;94261.50;;;24.14;64.70